sensor_id;sensor_type;location;lat;lon;timestamp;temperature;humidity
21171;DHT22;10743;52.160;20.910;2022-11-21T00:01:35;15.00;33.50
21171;DHT22;10743;52.160;20.910;2022-11-21T00:04:02;15.00;33.50
21171;DHT22;10743;52.160;20.910;2022-11-21T00:06:29;15.10;33.70
21171;DHT22;10743;52.160;20.910;2022-11-21T00:08:56;15.10;33.60
21171;DHT22;10743;52.160;20.910;2022-11-21T00:11:23;15.00;33.60
21171;DHT22;10743;52.160;20.910;2022-11-21T00:13:49;15.10;33.70
21171;DHT22;10743;52.160;20.910;2022-11-21T00:16:16;15.10;33.80
21171;DHT22;10743;52.160;20.910;2022-11-21T00:18:43;15.10;33.80
21171;DHT22;10743;52.160;20.910;2022-11-21T00:21:15;15.10;33.90
21171;DHT22;10743;52.160;20.910;2022-11-21T00:23:44;15.10;33.90
21171;DHT22;10743;52.160;20.910;2022-11-21T00:26:12;15.20;33.90
21171;DHT22;10743;52.160;20.910;2022-11-21T00:28:40;16.30;34.60
21171;DHT22;10743;52.160;20.910;2022-11-21T00:31:07;15.20;33.90
21171;DHT22;10743;52.160;20.910;2022-11-21T00:33:35;15.30;33.90
21171;DHT22;10743;52.160;20.910;2022-11-21T00:36:06;15.30;33.90
21171;DHT22;10743;52.160;20.910;2022-11-21T00:38:34;15.30;33.90
21171;DHT22;10743;52.160;20.910;2022-11-21T00:41:01;15.30;33.90
21171;DHT22;10743;52.160;20.910;2022-11-21T00:43:28;15.30;33.90
21171;DHT22;10743;52.160;20.910;2022-11-21T00:45:55;15.30;33.90
21171;DHT22;10743;52.160;20.910;2022-11-21T00:48:22;15.40;34.00
21171;DHT22;10743;52.160;20.910;2022-11-21T00:50:49;15.40;33.90
21171;DHT22;10743;52.160;20.910;2022-11-21T00:53:16;15.40;33.90
21171;DHT22;10743;52.160;20.910;2022-11-21T00:55:43;15.40;33.90
21171;DHT22;10743;52.160;20.910;2022-11-21T00:58:09;15.40;33.80
21171;DHT22;10743;52.160;20.910;2022-11-21T01:00:36;15.40;33.80
21171;DHT22;10743;52.160;20.910;2022-11-21T01:03:03;15.40;34.00
21171;DHT22;10743;52.160;20.910;2022-11-21T01:05:31;15.30;34.10
21171;DHT22;10743;52.160;20.910;2022-11-21T01:07:58;15.30;34.20
21171;DHT22;10743;52.160;20.910;2022-11-21T01:10:25;15.30;34.30
21171;DHT22;10743;52.160;20.910;2022-11-21T01:12:52;15.30;34.20
21171;DHT22;10743;52.160;20.910;2022-11-21T01:15:19;15.40;34.20
21171;DHT22;10743;52.160;20.910;2022-11-21T01:17:46;15.40;34.10
21171;DHT22;10743;52.160;20.910;2022-11-21T01:20:13;15.50;34.10
21171;DHT22;10743;52.160;20.910;2022-11-21T01:22:40;15.50;34.10
21171;DHT22;10743;52.160;20.910;2022-11-21T01:25:07;15.40;34.10
21171;DHT22;10743;52.160;20.910;2022-11-21T01:27:34;15.40;34.10
21171;DHT22;10743;52.160;20.910;2022-11-21T01:30:02;15.40;34.10
21171;DHT22;10743;52.160;20.910;2022-11-21T01:32:29;15.50;34.00
21171;DHT22;10743;52.160;20.910;2022-11-21T01:34:56;15.40;33.80
21171;DHT22;10743;52.160;20.910;2022-11-21T01:37:23;15.50;33.80
21171;DHT22;10743;52.160;20.910;2022-11-21T01:39:50;15.50;33.70
21171;DHT22;10743;52.160;20.910;2022-11-21T01:42:17;15.40;33.50
21171;DHT22;10743;52.160;20.910;2022-11-21T01:44:47;15.40;33.50
21171;DHT22;10743;52.160;20.910;2022-11-21T01:47:16;15.40;33.50
21171;DHT22;10743;52.160;20.910;2022-11-21T01:49:43;15.30;33.50
21171;DHT22;10743;52.160;20.910;2022-11-21T01:52:27;15.20;33.50
21171;DHT22;10743;52.160;20.910;2022-11-21T01:55:03;15.20;33.60
21171;DHT22;10743;52.160;20.910;2022-11-21T01:57:42;15.10;33.60
21171;DHT22;10743;52.160;20.910;2022-11-21T02:00:17;15.00;33.70
21171;DHT22;10743;52.160;20.910;2022-11-21T02:02:53;15.00;33.70
21171;DHT22;10743;52.160;20.910;2022-11-21T02:05:30;15.00;33.70
21171;DHT22;10743;52.160;20.910;2022-11-21T02:08:06;15.00;33.70
21171;DHT22;10743;52.160;20.910;2022-11-21T02:10:37;15.00;33.60
21171;DHT22;10743;52.160;20.910;2022-11-21T02:13:07;15.00;33.60
21171;DHT22;10743;52.160;20.910;2022-11-21T02:15:34;14.90;33.40
21171;DHT22;10743;52.160;20.910;2022-11-21T02:18:00;14.90;33.40
21171;DHT22;10743;52.160;20.910;2022-11-21T02:20:28;14.90;34.00
21171;DHT22;10743;52.160;20.910;2022-11-21T02:23:03;14.90;33.20
21171;DHT22;10743;52.160;20.910;2022-11-21T02:25:36;14.80;33.10
21171;DHT22;10743;52.160;20.910;2022-11-21T02:28:19;14.80;33.10
21171;DHT22;10743;52.160;20.910;2022-11-21T02:30:49;14.80;33.00
21171;DHT22;10743;52.160;20.910;2022-11-21T02:33:16;14.70;32.90
21171;DHT22;10743;52.160;20.910;2022-11-21T02:35:43;14.70;33.00
21171;DHT22;10743;52.160;20.910;2022-11-21T02:38:21;14.70;33.00
21171;DHT22;10743;52.160;20.910;2022-11-21T02:41:02;14.60;32.90
21171;DHT22;10743;52.160;20.910;2022-11-21T02:43:46;14.60;32.90
21171;DHT22;10743;52.160;20.910;2022-11-21T02:46:16;14.50;32.80
21171;DHT22;10743;52.160;20.910;2022-11-21T02:48:43;14.50;32.80
21171;DHT22;10743;52.160;20.910;2022-11-21T02:51:10;14.40;32.80
21171;DHT22;10743;52.160;20.910;2022-11-21T02:53:37;14.40;32.60
21171;DHT22;10743;52.160;20.910;2022-11-21T02:56:04;14.40;32.60
21171;DHT22;10743;52.160;20.910;2022-11-21T02:58:31;14.40;32.70
21171;DHT22;10743;52.160;20.910;2022-11-21T03:00:58;14.40;32.60
21171;DHT22;10743;52.160;20.910;2022-11-21T03:03:25;14.30;32.60
21171;DHT22;10743;52.160;20.910;2022-11-21T03:05:53;14.30;32.50
21171;DHT22;10743;52.160;20.910;2022-11-21T03:08:20;14.30;32.50
21171;DHT22;10743;52.160;20.910;2022-11-21T03:10:47;14.30;32.50
21171;DHT22;10743;52.160;20.910;2022-11-21T03:13:14;14.30;32.50
21171;DHT22;10743;52.160;20.910;2022-11-21T03:15:40;14.20;32.50
21171;DHT22;10743;52.160;20.910;2022-11-21T03:18:07;14.20;32.50
21171;DHT22;10743;52.160;20.910;2022-11-21T03:20:34;14.20;32.60
21171;DHT22;10743;52.160;20.910;2022-11-21T03:23:01;14.20;32.50
21171;DHT22;10743;52.160;20.910;2022-11-21T03:25:28;14.20;32.50
21171;DHT22;10743;52.160;20.910;2022-11-21T03:27:55;14.20;32.50
21171;DHT22;10743;52.160;20.910;2022-11-21T03:30:24;14.10;32.40
21171;DHT22;10743;52.160;20.910;2022-11-21T03:32:54;14.10;32.30
21171;DHT22;10743;52.160;20.910;2022-11-21T03:35:22;14.10;32.20
21171;DHT22;10743;52.160;20.910;2022-11-21T03:37:49;14.10;32.20
21171;DHT22;10743;52.160;20.910;2022-11-21T03:40:16;14.00;32.20
21171;DHT22;10743;52.160;20.910;2022-11-21T03:42:43;14.00;32.20
21171;DHT22;10743;52.160;20.910;2022-11-21T03:45:10;13.90;32.10
21171;DHT22;10743;52.160;20.910;2022-11-21T03:47:37;13.90;32.20
21171;DHT22;10743;52.160;20.910;2022-11-21T03:50:04;13.90;32.40
21171;DHT22;10743;52.160;20.910;2022-11-21T03:52:31;13.80;32.30
21171;DHT22;10743;52.160;20.910;2022-11-21T03:54:59;13.80;32.40
21171;DHT22;10743;52.160;20.910;2022-11-21T03:57:25;13.80;32.30
21171;DHT22;10743;52.160;20.910;2022-11-21T03:59:52;13.80;32.30
21171;DHT22;10743;52.160;20.910;2022-11-21T04:02:19;13.80;32.30
21171;DHT22;10743;52.160;20.910;2022-11-21T04:04:47;13.80;32.30
21171;DHT22;10743;52.160;20.910;2022-11-21T04:07:14;13.80;32.30
21171;DHT22;10743;52.160;20.910;2022-11-21T04:09:42;13.80;32.40
21171;DHT22;10743;52.160;20.910;2022-11-21T04:12:08;13.70;32.20
21171;DHT22;10743;52.160;20.910;2022-11-21T04:14:35;13.70;32.10
21171;DHT22;10743;52.160;20.910;2022-11-21T04:17:02;13.70;32.00
21171;DHT22;10743;52.160;20.910;2022-11-21T04:19:30;13.70;32.00
21171;DHT22;10743;52.160;20.910;2022-11-21T04:21:56;13.70;32.00
21171;DHT22;10743;52.160;20.910;2022-11-21T04:24:23;13.70;32.00
21171;DHT22;10743;52.160;20.910;2022-11-21T04:26:53;13.60;31.80
21171;DHT22;10743;52.160;20.910;2022-11-21T04:29:20;13.60;31.80
21171;DHT22;10743;52.160;20.910;2022-11-21T04:31:47;13.60;31.70
21171;DHT22;10743;52.160;20.910;2022-11-21T04:34:14;13.60;31.70
21171;DHT22;10743;52.160;20.910;2022-11-21T04:36:41;13.50;31.60
21171;DHT22;10743;52.160;20.910;2022-11-21T04:39:08;13.50;32.30
21171;DHT22;10743;52.160;20.910;2022-11-21T04:41:35;13.50;31.70
21171;DHT22;10743;52.160;20.910;2022-11-21T04:44:02;13.50;31.70
21171;DHT22;10743;52.160;20.910;2022-11-21T04:46:29;13.40;31.70
21171;DHT22;10743;52.160;20.910;2022-11-21T04:48:56;13.40;31.60
21171;DHT22;10743;52.160;20.910;2022-11-21T04:51:23;13.40;31.60
21171;DHT22;10743;52.160;20.910;2022-11-21T04:53:50;13.40;31.50
21171;DHT22;10743;52.160;20.910;2022-11-21T04:56:17;13.40;31.50
21171;DHT22;10743;52.160;20.910;2022-11-21T04:58:44;13.40;31.50
21171;DHT22;10743;52.160;20.910;2022-11-21T05:01:11;13.40;31.60
21171;DHT22;10743;52.160;20.910;2022-11-21T05:03:38;13.40;31.80
21171;DHT22;10743;52.160;20.910;2022-11-21T05:06:05;13.30;31.90
21171;DHT22;10743;52.160;20.910;2022-11-21T05:08:32;13.30;32.10
21171;DHT22;10743;52.160;20.910;2022-11-21T05:10:59;13.30;32.10
21171;DHT22;10743;52.160;20.910;2022-11-21T05:13:44;13.30;32.10
21171;DHT22;10743;52.160;20.910;2022-11-21T05:16:11;13.30;32.20
21171;DHT22;10743;52.160;20.910;2022-11-21T05:18:38;13.30;32.30
21171;DHT22;10743;52.160;20.910;2022-11-21T05:21:05;13.30;32.30
21171;DHT22;10743;52.160;20.910;2022-11-21T05:23:32;13.30;32.40
21171;DHT22;10743;52.160;20.910;2022-11-21T05:25:59;13.20;32.40
21171;DHT22;10743;52.160;20.910;2022-11-21T05:28:26;13.30;32.50
21171;DHT22;10743;52.160;20.910;2022-11-21T05:30:53;13.20;32.50
21171;DHT22;10743;52.160;20.910;2022-11-21T05:33:20;13.20;32.40
21171;DHT22;10743;52.160;20.910;2022-11-21T05:35:47;13.20;32.50
21171;DHT22;10743;52.160;20.910;2022-11-21T05:38:14;13.20;32.50
21171;DHT22;10743;52.160;20.910;2022-11-21T05:40:41;13.20;32.60
21171;DHT22;10743;52.160;20.910;2022-11-21T05:43:10;13.20;32.60
21171;DHT22;10743;52.160;20.910;2022-11-21T05:45:56;13.20;32.70
21171;DHT22;10743;52.160;20.910;2022-11-21T05:48:23;13.20;32.60
21171;DHT22;10743;52.160;20.910;2022-11-21T05:50:50;13.20;32.70
21171;DHT22;10743;52.160;20.910;2022-11-21T05:53:17;13.20;32.80
21171;DHT22;10743;52.160;20.910;2022-11-21T05:55:45;13.20;32.90
21171;DHT22;10743;52.160;20.910;2022-11-21T05:58:12;13.20;32.90
21171;DHT22;10743;52.160;20.910;2022-11-21T06:00:40;13.20;33.60
21171;DHT22;10743;52.160;20.910;2022-11-21T06:03:09;13.20;32.90
21171;DHT22;10743;52.160;20.910;2022-11-21T06:06:05;13.20;32.80
21171;DHT22;10743;52.160;20.910;2022-11-21T06:08:37;13.10;32.70
21171;DHT22;10743;52.160;20.910;2022-11-21T06:11:06;13.10;32.70
21171;DHT22;10743;52.160;20.910;2022-11-21T06:13:35;13.10;32.80
21171;DHT22;10743;52.160;20.910;2022-11-21T06:16:11;13.10;32.80
21171;DHT22;10743;52.160;20.910;2022-11-21T06:18:42;13.10;32.80
21171;DHT22;10743;52.160;20.910;2022-11-21T06:21:18;13.00;32.80
21171;DHT22;10743;52.160;20.910;2022-11-21T06:23:49;13.10;32.90
21171;DHT22;10743;52.160;20.910;2022-11-21T06:26:19;13.10;33.00
21171;DHT22;10743;52.160;20.910;2022-11-21T06:28:47;13.10;33.10
21171;DHT22;10743;52.160;20.910;2022-11-21T06:31:17;13.10;33.10
21171;DHT22;10743;52.160;20.910;2022-11-21T06:33:46;13.10;33.10
21171;DHT22;10743;52.160;20.910;2022-11-21T06:36:15;13.10;33.20
21171;DHT22;10743;52.160;20.910;2022-11-21T06:38:43;13.10;33.50
21171;DHT22;10743;52.160;20.910;2022-11-21T06:41:19;13.10;33.50
21171;DHT22;10743;52.160;20.910;2022-11-21T06:43:48;13.10;33.70
21171;DHT22;10743;52.160;20.910;2022-11-21T06:46:15;13.10;33.80
21171;DHT22;10743;52.160;20.910;2022-11-21T06:48:43;13.20;33.80
21171;DHT22;10743;52.160;20.910;2022-11-21T06:51:19;13.30;33.80
21171;DHT22;10743;52.160;20.910;2022-11-21T06:53:51;13.40;33.80
21171;DHT22;10743;52.160;20.910;2022-11-21T06:56:24;13.40;33.80
21171;DHT22;10743;52.160;20.910;2022-11-21T06:58:51;13.50;33.80
21171;DHT22;10743;52.160;20.910;2022-11-21T07:01:18;13.60;33.70
21171;DHT22;10743;52.160;20.910;2022-11-21T07:03:45;13.60;33.60
21171;DHT22;10743;52.160;20.910;2022-11-21T07:06:12;13.60;33.50
21171;DHT22;10743;52.160;20.910;2022-11-21T07:08:39;13.70;33.50
21171;DHT22;10743;52.160;20.910;2022-11-21T07:11:09;13.80;33.50
21171;DHT22;10743;52.160;20.910;2022-11-21T07:13:50;13.80;33.60
21171;DHT22;10743;52.160;20.910;2022-11-21T07:16:17;13.80;33.60
21171;DHT22;10743;52.160;20.910;2022-11-21T07:18:44;13.80;33.80
21171;DHT22;10743;52.160;20.910;2022-11-21T07:21:11;13.80;33.80
21171;DHT22;10743;52.160;20.910;2022-11-21T07:23:38;13.90;33.90
21171;DHT22;10743;52.160;20.910;2022-11-21T07:26:06;13.90;34.10
21171;DHT22;10743;52.160;20.910;2022-11-21T07:28:34;14.00;34.00
21171;DHT22;10743;52.160;20.910;2022-11-21T07:31:01;14.00;34.00
21171;DHT22;10743;52.160;20.910;2022-11-21T07:33:35;14.10;34.10
21171;DHT22;10743;52.160;20.910;2022-11-21T07:36:05;14.10;34.10
21171;DHT22;10743;52.160;20.910;2022-11-21T07:38:32;14.10;34.10
21171;DHT22;10743;52.160;20.910;2022-11-21T07:40:59;14.20;34.20
21171;DHT22;10743;52.160;20.910;2022-11-21T07:43:26;14.20;34.20
21171;DHT22;10743;52.160;20.910;2022-11-21T07:45:53;14.30;34.20
21171;DHT22;10743;52.160;20.910;2022-11-21T07:48:21;14.40;34.20
21171;DHT22;10743;52.160;20.910;2022-11-21T07:50:48;14.40;34.30
21171;DHT22;10743;52.160;20.910;2022-11-21T07:53:15;14.50;34.30
21171;DHT22;10743;52.160;20.910;2022-11-21T07:55:42;14.60;34.40
21171;DHT22;10743;52.160;20.910;2022-11-21T07:58:11;14.70;34.20
21171;DHT22;10743;52.160;20.910;2022-11-21T08:00:40;14.70;34.20
21171;DHT22;10743;52.160;20.910;2022-11-21T08:03:09;14.80;34.30
21171;DHT22;10743;52.160;20.910;2022-11-21T08:05:42;14.80;34.30
21171;DHT22;10743;52.160;20.910;2022-11-21T08:08:11;14.80;34.40
21171;DHT22;10743;52.160;20.910;2022-11-21T08:10:41;15.00;34.40
21171;DHT22;10743;52.160;20.910;2022-11-21T08:13:09;15.10;34.40
21171;DHT22;10743;52.160;20.910;2022-11-21T08:15:37;15.20;34.30
21171;DHT22;10743;52.160;20.910;2022-11-21T08:18:13;15.30;34.10
21171;DHT22;10743;52.160;20.910;2022-11-21T08:20:41;15.40;34.10
21171;DHT22;10743;52.160;20.910;2022-11-21T08:23:08;15.40;34.10
21171;DHT22;10743;52.160;20.910;2022-11-21T08:25:37;15.40;34.00
21171;DHT22;10743;52.160;20.910;2022-11-21T08:28:05;15.50;34.10
21171;DHT22;10743;52.160;20.910;2022-11-21T08:30:33;15.50;34.20
21171;DHT22;10743;52.160;20.910;2022-11-21T08:33:01;15.50;34.20
21171;DHT22;10743;52.160;20.910;2022-11-21T08:35:29;15.50;34.30
21171;DHT22;10743;52.160;20.910;2022-11-21T08:37:59;15.60;34.20
21171;DHT22;10743;52.160;20.910;2022-11-21T08:40:28;15.60;34.20
21171;DHT22;10743;52.160;20.910;2022-11-21T08:43:04;15.70;34.30
21171;DHT22;10743;52.160;20.910;2022-11-21T08:45:34;15.70;34.40
21171;DHT22;10743;52.160;20.910;2022-11-21T08:48:02;15.80;34.50
21171;DHT22;10743;52.160;20.910;2022-11-21T08:50:29;15.90;34.30
21171;DHT22;10743;52.160;20.910;2022-11-21T08:53:01;15.90;34.20
21171;DHT22;10743;52.160;20.910;2022-11-21T08:55:29;16.00;34.20
21171;DHT22;10743;52.160;20.910;2022-11-21T08:57:56;16.10;34.20
21171;DHT22;10743;52.160;20.910;2022-11-21T09:00:24;16.10;34.20
21171;DHT22;10743;52.160;20.910;2022-11-21T09:02:51;16.20;34.10
21171;DHT22;10743;52.160;20.910;2022-11-21T09:05:18;16.00;33.90
21171;DHT22;10743;52.160;20.910;2022-11-21T09:07:44;16.40;34.10
21171;DHT22;10743;52.160;20.910;2022-11-21T09:10:13;16.40;33.80
21171;DHT22;10743;52.160;20.910;2022-11-21T09:12:40;16.50;33.70
21171;DHT22;10743;52.160;20.910;2022-11-21T09:15:09;16.50;33.80
21171;DHT22;10743;52.160;20.910;2022-11-21T09:17:59;16.60;33.70
21171;DHT22;10743;52.160;20.910;2022-11-21T09:20:31;16.70;33.80
21171;DHT22;10743;52.160;20.910;2022-11-21T09:23:05;16.80;33.50
21171;DHT22;10743;52.160;20.910;2022-11-21T09:25:32;16.90;33.20
21171;DHT22;10743;52.160;20.910;2022-11-21T09:28:01;17.00;32.90
21171;DHT22;10743;52.160;20.910;2022-11-21T09:30:28;17.10;32.80
21171;DHT22;10743;52.160;20.910;2022-11-21T09:33:00;17.20;32.90
21171;DHT22;10743;52.160;20.910;2022-11-21T09:35:28;17.20;32.80
21171;DHT22;10743;52.160;20.910;2022-11-21T09:37:56;17.30;32.90
21171;DHT22;10743;52.160;20.910;2022-11-21T09:40:24;17.40;32.90
21171;DHT22;10743;52.160;20.910;2022-11-21T09:46:05;17.60;32.10
21171;DHT22;10743;52.160;20.910;2022-11-21T09:48:59;17.70;31.90
21171;DHT22;10743;52.160;20.910;2022-11-21T09:51:29;17.80;31.80
21171;DHT22;10743;52.160;20.910;2022-11-21T09:56:38;17.90;32.10
21171;DHT22;10743;52.160;20.910;2022-11-21T10:01:52;18.00;31.60
21171;DHT22;10743;52.160;20.910;2022-11-21T10:04:19;18.10;31.50
21171;DHT22;10743;52.160;20.910;2022-11-21T10:10:02;18.30;31.30
21171;DHT22;10743;52.160;20.910;2022-11-21T10:12:53;18.30;31.30
21171;DHT22;10743;52.160;20.910;2022-11-21T10:15:35;18.50;31.30
21171;DHT22;10743;52.160;20.910;2022-11-21T10:21:51;18.50;31.40
21171;DHT22;10743;52.160;20.910;2022-11-21T10:24:39;18.50;31.50
21171;DHT22;10743;52.160;20.910;2022-11-21T10:30:05;18.80;31.00
21171;DHT22;10743;52.160;20.910;2022-11-21T10:32:46;18.80;31.10
21171;DHT22;10743;52.160;20.910;2022-11-21T10:35:20;18.90;30.80
21171;DHT22;10743;52.160;20.910;2022-11-21T10:38:22;18.90;30.70
21171;DHT22;10743;52.160;20.910;2022-11-21T10:41:00;19.00;31.20
21171;DHT22;10743;52.160;20.910;2022-11-21T10:43:46;19.10;30.30
21171;DHT22;10743;52.160;20.910;2022-11-21T10:46:35;19.20;30.30
21171;DHT22;10743;52.160;20.910;2022-11-21T10:49:03;19.20;30.40
21171;DHT22;10743;52.160;20.910;2022-11-21T10:52:04;19.30;30.30
21171;DHT22;10743;52.160;20.910;2022-11-21T10:54:32;19.30;30.00
21171;DHT22;10743;52.160;20.910;2022-11-21T10:57:35;19.50;30.00
21171;DHT22;10743;52.160;20.910;2022-11-21T11:00:23;19.60;29.80
21171;DHT22;10743;52.160;20.910;2022-11-21T11:10:41;19.70;29.90
21171;DHT22;10743;52.160;20.910;2022-11-21T11:13:18;19.70;29.80
21171;DHT22;10743;52.160;20.910;2022-11-21T11:16:20;19.70;29.90
21171;DHT22;10743;52.160;20.910;2022-11-21T11:18:57;19.80;29.90
21171;DHT22;10743;52.160;20.910;2022-11-21T11:29:29;19.70;30.00
21171;DHT22;10743;52.160;20.910;2022-11-21T11:32:11;19.70;30.20
21171;DHT22;10743;52.160;20.910;2022-11-21T11:34:56;19.60;30.10
21171;DHT22;10743;52.160;20.910;2022-11-21T11:37:39;19.70;30.00
21171;DHT22;10743;52.160;20.910;2022-11-21T11:40:24;19.60;30.00
21171;DHT22;10743;52.160;20.910;2022-11-21T11:43:12;19.60;30.20
21171;DHT22;10743;52.160;20.910;2022-11-21T11:55:44;19.70;30.50
21171;DHT22;10743;52.160;20.910;2022-11-21T12:04:21;19.70;30.50
21171;DHT22;10743;52.160;20.910;2022-11-21T12:06:59;19.70;30.50
21171;DHT22;10743;52.160;20.910;2022-11-21T12:10:23;19.80;30.30
21171;DHT22;10743;52.160;20.910;2022-11-21T12:13:05;19.90;30.40
21171;DHT22;10743;52.160;20.910;2022-11-21T12:15:42;19.90;30.40
21171;DHT22;10743;52.160;20.910;2022-11-21T12:20:57;20.00;30.20
21171;DHT22;10743;52.160;20.910;2022-11-21T12:23:35;20.00;30.30
21171;DHT22;10743;52.160;20.910;2022-11-21T12:32:54;19.80;30.60
21171;DHT22;10743;52.160;20.910;2022-11-21T12:35:46;19.90;30.70
21171;DHT22;10743;52.160;20.910;2022-11-21T12:41:59;19.90;30.70
21171;DHT22;10743;52.160;20.910;2022-11-21T12:45:08;19.90;30.70
21171;DHT22;10743;52.160;20.910;2022-11-21T12:57:17;19.80;31.70
21171;DHT22;10743;52.160;20.910;2022-11-21T13:05:36;19.70;31.20
21171;DHT22;10743;52.160;20.910;2022-11-21T13:08:14;19.80;31.20
21171;DHT22;10743;52.160;20.910;2022-11-21T13:11:20;19.80;31.30
21171;DHT22;10743;52.160;20.910;2022-11-21T13:14:20;19.80;31.30
21171;DHT22;10743;52.160;20.910;2022-11-21T13:20:01;19.80;31.40
21171;DHT22;10743;52.160;20.910;2022-11-21T13:25:12;19.70;31.30
21171;DHT22;10743;52.160;20.910;2022-11-21T13:36:04;19.50;31.70
21171;DHT22;10743;52.160;20.910;2022-11-21T13:47:28;19.50;31.80
21171;DHT22;10743;52.160;20.910;2022-11-21T13:50:21;19.50;31.90
21171;DHT22;10743;52.160;20.910;2022-11-21T13:53:16;19.50;32.00
21171;DHT22;10743;52.160;20.910;2022-11-21T13:59:46;19.30;32.20
21171;DHT22;10743;52.160;20.910;2022-11-21T14:11:39;19.30;32.60
21171;DHT22;10743;52.160;20.910;2022-11-21T14:17:23;19.20;32.60
21171;DHT22;10743;52.160;20.910;2022-11-21T14:19:57;19.20;32.70
21171;DHT22;10743;52.160;20.910;2022-11-21T14:22:30;19.20;32.70
21171;DHT22;10743;52.160;20.910;2022-11-21T14:25:18;19.20;32.70
21171;DHT22;10743;52.160;20.910;2022-11-21T14:27:48;19.20;32.80
21171;DHT22;10743;52.160;20.910;2022-11-21T14:30:34;19.20;32.70
21171;DHT22;10743;52.160;20.910;2022-11-21T14:35:59;19.20;32.70
21171;DHT22;10743;52.160;20.910;2022-11-21T14:38:29;19.20;32.80
21171;DHT22;10743;52.160;20.910;2022-11-21T14:41:23;19.20;32.70
21171;DHT22;10743;52.160;20.910;2022-11-21T14:46:32;19.30;32.60
21171;DHT22;10743;52.160;20.910;2022-11-21T14:49:17;19.30;32.60
21171;DHT22;10743;52.160;20.910;2022-11-21T14:51:57;19.20;32.60
21171;DHT22;10743;52.160;20.910;2022-11-21T14:54:32;19.30;32.50
21171;DHT22;10743;52.160;20.910;2022-11-21T14:57:07;19.30;32.40
21171;DHT22;10743;52.160;20.910;2022-11-21T15:00:04;19.30;32.30
21171;DHT22;10743;52.160;20.910;2022-11-21T15:02:32;19.30;32.30
21171;DHT22;10743;52.160;20.910;2022-11-21T15:05:02;19.30;32.30
21171;DHT22;10743;52.160;20.910;2022-11-21T15:07:41;19.30;32.40
21171;DHT22;10743;52.160;20.910;2022-11-21T15:10:30;19.10;32.50
21171;DHT22;10743;52.160;20.910;2022-11-21T15:15:33;19.10;32.60
21171;DHT22;10743;52.160;20.910;2022-11-21T15:18:05;19.10;32.50
21171;DHT22;10743;52.160;20.910;2022-11-21T15:21:02;19.10;32.60
21171;DHT22;10743;52.160;20.910;2022-11-21T15:23:34;19.10;32.70
21171;DHT22;10743;52.160;20.910;2022-11-21T15:26:04;19.10;32.70
21171;DHT22;10743;52.160;20.910;2022-11-21T15:28:31;19.10;32.70
21171;DHT22;10743;52.160;20.910;2022-11-21T15:34:00;19.10;32.80
21171;DHT22;10743;52.160;20.910;2022-11-21T15:37:04;19.10;32.80
21171;DHT22;10743;52.160;20.910;2022-11-21T15:39:45;19.10;32.80
21171;DHT22;10743;52.160;20.910;2022-11-21T15:42:34;19.00;32.80
21171;DHT22;10743;52.160;20.910;2022-11-21T15:47:46;19.00;32.90
21171;DHT22;10743;52.160;20.910;2022-11-21T15:50:14;19.00;33.70
21171;DHT22;10743;52.160;20.910;2022-11-21T15:52:50;19.00;33.00
21171;DHT22;10743;52.160;20.910;2022-11-21T15:55:20;19.00;33.00
21171;DHT22;10743;52.160;20.910;2022-11-21T15:57:49;19.00;33.00
21171;DHT22;10743;52.160;20.910;2022-11-21T16:00:16;19.00;33.10
21171;DHT22;10743;52.160;20.910;2022-11-21T16:02:43;18.90;33.00
21171;DHT22;10743;52.160;20.910;2022-11-21T16:05:11;19.00;33.10
21171;DHT22;10743;52.160;20.910;2022-11-21T16:07:40;18.90;33.10
21171;DHT22;10743;52.160;20.910;2022-11-21T16:10:08;18.90;33.10
21171;DHT22;10743;52.160;20.910;2022-11-21T16:12:47;18.90;33.20
21171;DHT22;10743;52.160;20.910;2022-11-21T16:15:14;18.90;33.20
21171;DHT22;10743;52.160;20.910;2022-11-21T16:17:42;18.90;33.30
21171;DHT22;10743;52.160;20.910;2022-11-21T16:20:11;18.80;33.40
21171;DHT22;10743;52.160;20.910;2022-11-21T16:22:38;18.80;33.50
21171;DHT22;10743;52.160;20.910;2022-11-21T16:25:12;18.90;33.50
21171;DHT22;10743;52.160;20.910;2022-11-21T16:27:39;18.90;33.50
21171;DHT22;10743;52.160;20.910;2022-11-21T16:30:07;18.80;33.50
21171;DHT22;10743;52.160;20.910;2022-11-21T16:32:34;18.90;33.50
21171;DHT22;10743;52.160;20.910;2022-11-21T16:35:01;18.80;33.50
21171;DHT22;10743;52.160;20.910;2022-11-21T16:37:32;18.80;33.60
21171;DHT22;10743;52.160;20.910;2022-11-21T16:39:59;18.80;33.70
21171;DHT22;10743;52.160;20.910;2022-11-21T16:42:26;18.80;33.70
21171;DHT22;10743;52.160;20.910;2022-11-21T16:44:53;18.80;33.70
21171;DHT22;10743;52.160;20.910;2022-11-21T16:47:20;18.80;33.80
21171;DHT22;10743;52.160;20.910;2022-11-21T16:49:47;18.80;33.90
21171;DHT22;10743;52.160;20.910;2022-11-21T16:52:14;18.80;33.90
21171;DHT22;10743;52.160;20.910;2022-11-21T16:54:43;18.80;33.90
21171;DHT22;10743;52.160;20.910;2022-11-21T16:57:10;18.80;33.80
21171;DHT22;10743;52.160;20.910;2022-11-21T16:59:37;18.80;33.80
21171;DHT22;10743;52.160;20.910;2022-11-21T17:02:04;18.80;33.90
21171;DHT22;10743;52.160;20.910;2022-11-21T17:04:31;18.80;33.90
21171;DHT22;10743;52.160;20.910;2022-11-21T17:06:59;18.80;34.00
21171;DHT22;10743;52.160;20.910;2022-11-21T17:09:26;18.80;34.00
21171;DHT22;10743;52.160;20.910;2022-11-21T17:11:56;18.70;34.00
21171;DHT22;10743;52.160;20.910;2022-11-21T17:14:23;18.80;34.10
21171;DHT22;10743;52.160;20.910;2022-11-21T17:16:50;18.80;34.10
21171;DHT22;10743;52.160;20.910;2022-11-21T17:19:17;18.70;34.00
21171;DHT22;10743;52.160;20.910;2022-11-21T17:21:44;18.70;34.10
21171;DHT22;10743;52.160;20.910;2022-11-21T17:24:12;18.80;34.10
21171;DHT22;10743;52.160;20.910;2022-11-21T17:26:39;18.80;34.20
21171;DHT22;10743;52.160;20.910;2022-11-21T17:29:06;18.80;34.10
21171;DHT22;10743;52.160;20.910;2022-11-21T17:31:33;18.70;34.10
21171;DHT22;10743;52.160;20.910;2022-11-21T17:34:00;18.70;34.20
21171;DHT22;10743;52.160;20.910;2022-11-21T17:36:28;18.80;34.20
21171;DHT22;10743;52.160;20.910;2022-11-21T17:38:56;18.80;34.20
21171;DHT22;10743;52.160;20.910;2022-11-21T17:41:24;18.80;34.20
21171;DHT22;10743;52.160;20.910;2022-11-21T17:43:55;18.80;34.20
21171;DHT22;10743;52.160;20.910;2022-11-21T17:46:23;18.80;34.20
21171;DHT22;10743;52.160;20.910;2022-11-21T17:48:52;18.80;34.20
21171;DHT22;10743;52.160;20.910;2022-11-21T17:51:31;18.90;34.20
21171;DHT22;10743;52.160;20.910;2022-11-21T17:54:00;18.80;34.20